Bunch, OK (74931)

12:56 PM CDT on October 25, 2014 (GMT -0500)
The Leaf PH | Change Station
CLOSE
Current Station
Personal Weather Station
Location: Park Hill, OK
Elevation: 814 ft
Nearby Weather Stations

Elev 814 ft 35.77 °N, 94.91 °W | Updated 14 minutes ago

Clear
Clear
78.4 °F
Feels Like 82 °F
N
0.0
Wind Variable Wind from WSW

Today
High -- | Low -- °F
--% Chance of Precip.
Yesterday
High -- | Low -- °F
Precip. -- in
7:34 AM 6:31 PM
Waxing Crescent, 4% visible
Pressure 30.11 in
Visibility 10.0 miles
Clouds Clear
Heat Index 82 °F
Dew Point 78 °F
Humidity 98%
Rainfall 0.00 in
Snow Depth Not available.
UV 5 out of 12
Pollen 3.80 out of 12
Air Quality Not available.
Flu Activity Sporadic
METAR KJSV 251735Z AUTO 00000KT 10SM CLR 26/16 A3011 RMK AO2

More Conditions Fewer Conditions

Pressure 30.11 in
Visibility 10.0 miles
Clouds Clear
Heat Index 82 °F
Dew Point 78 °F
Humidity 98%
Rainfall 0.00 in
Snow Depth Not available.
UV 5 out of 12
Pollen 3.80 out of 12
Air Quality Not available.
Flu Activity Sporadic
METAR KJSV 251735Z AUTO 00000KT 10SM CLR 26/16 A3011 RMK AO2

More Conditions Fewer Conditions

10-Day Weather Forecast

Almanac

Astronomy

Oct. 25, 2014 Rise Set
Actual Time 7:34 AM CDT 6:31 PM CDT
Civil Twilight 7:08 AM CDT 6:57 PM CDT
Nautical Twilight 6:38 AM CDT 7:27 PM CDT
Astronomical Twilight 6:08 AM CDT 7:56 PM CDT
Moon 9:11 AM CDT 7:57 PM CDT
Length of Visible Light 11h 48m
Length of Day
10h 56m
Tomorrow will be 2m 4s shorter.
Waxing Crescent, 4% of the Moon is Illuminated
Today
Waxing Crescent
Oct 30
First Quarter
Nov 6
Full
Nov 14
Last Quarter
Nov 22
New

Today's Extremes

State Highs State Lows

Community

WunderPhotos

Upload Photos

1,764,919 photos uploaded!

Nearby

Snow Depth

Station Depth Elevation
No new snow has been reported.

Earthquake Activity

City Distance Mag. Time & Date
No recent earthquake activity has been reported nearby.
Minimum magnitude displayed is 2.5.

Coastal Water Temperatures

Place Temperature
No Stations Reporting

Nearby Weather Stations